Time;durP1;ratioP1;P1;durP2;ratioP2;P2;SDS_P1;SDS_P2;PMS_P1;PMS_P2;Temp;Humidity;BMP_temperature;BMP_pressure;BME280_temperature;BME280_humidity;BME280_pressure;Samples;Min_cycle;Max_cycle;Signal;HPM_P1;HPM_P2
2022/07/16 00:03:47;;;;;;;4.32;1.63;;;15.70;96.40;;;;;;5049340;28;20031;-47
2022/07/16 00:06:13;;;;;;;4.22;1.85;;;15.70;96.50;;;;;;5048751;28;20029;-44
2022/07/16 00:08:38;;;;;;;3.03;1.77;;;15.70;96.60;;;;;;5048979;28;20341;-44
2022/07/16 00:11:04;;;;;;;5.15;1.92;;;15.70;96.60;;;;;;5040948;28;20104;-47
2022/07/16 00:13:30;;;;;;;3.75;1.88;;;15.70;96.70;;;;;;5040619;28;20095;-44
2022/07/16 00:15:55;;;;;;;3.33;1.40;;;15.70;96.70;;;;;;5048662;28;20479;-44
2022/07/16 00:21:05;;;;;;;4.32;1.42;;;15.60;96.90;;;;;;5049323;28;20100;-45
2022/07/16 00:23:31;;;;;;;4.10;1.50;;;15.60;96.90;;;;;;5049084;28;20025;-44
2022/07/16 00:25:56;;;;;;;2.78;1.40;;;15.60;97.00;;;;;;5048710;28;20041;-46
2022/07/16 00:28:22;;;;;;;5.30;1.38;;;15.60;97.00;;;;;;5049344;28;20104;-47
2022/07/16 00:30:47;;;;;;;3.13;1.20;;;15.60;96.90;;;;;;5049397;28;20028;-44
2022/07/16 00:33:13;;;;;;;2.30;1.27;;;15.70;96.90;;;;;;5047974;28;20025;-44
2022/07/16 00:35:39;;;;;;;3.50;1.45;;;15.60;97.00;;;;;;5048633;28;20056;-44
2022/07/16 00:38:04;;;;;;;5.40;2.25;;;15.60;96.90;;;;;;5048752;28;20029;-44
2022/07/16 00:40:30;;;;;;;7.35;2.33;;;15.50;97.10;;;;;;5040720;28;20052;-46
2022/07/16 00:42:56;;;;;;;6.93;1.38;;;15.50;97.20;;;;;;5040541;28;20054;-47
2022/07/16 00:45:21;;;;;;;2.28;1.30;;;15.50;97.30;;;;;;5048486;28;20032;-45
2022/07/16 00:47:47;;;;;;;3.58;1.38;;;15.50;97.10;;;;;;5048892;28;20467;-44
2022/07/16 00:50:13;;;;;;;2.33;1.25;;;15.50;97.10;;;;;;5048833;28;20394;-45
2022/07/16 00:52:38;;;;;;;6.03;1.20;;;15.60;97.10;;;;;;5048561;28;20021;-44
2022/07/16 00:55:04;;;;;;;8.07;1.20;;;15.50;96.90;;;;;;5047983;28;20025;-44
2022/07/16 00:57:30;;;;;;;3.22;1.27;;;15.60;97.10;;;;;;5048877;28;20029;-46
2022/07/16 00:59:55;;;;;;;3.15;1.10;;;15.60;96.90;;;;;;5048583;28;20159;-44
2022/07/16 01:02:21;;;;;;;3.63;1.40;;;15.60;96.90;;;;;;5048534;28;20033;-45
2022/07/16 01:04:48;;;;;;;1.13;0.90;;;15.60;96.80;;;;;;5047944;28;20036;-46
2022/07/16 01:07:13;;;;;;;2.35;1.20;;;15.60;96.70;;;;;;5046561;28;20060;-45
2022/07/16 01:09:39;;;;;;;4.32;1.17;;;15.70;96.70;;;;;;5047164;28;20087;-45
2022/07/16 01:12:06;;;;;;;3.55;1.35;;;15.70;96.70;;;;;;5036542;28;20025;-45
2022/07/16 01:14:31;;;;;;;3.05;1.42;;;15.70;96.70;;;;;;5044478;28;20032;-45
2022/07/16 01:16:57;;;;;;;2.38;1.08;;;15.70;96.70;;;;;;5048330;28;20036;-44
2022/07/16 01:19:22;;;;;;;1.60;1.25;;;15.70;96.60;;;;;;5046955;28;20033;-44
2022/07/16 01:21:48;;;;;;;3.78;1.27;;;15.70;96.50;;;;;;5048193;28;20509;-44
2022/07/16 01:24:13;;;;;;;4.25;1.60;;;15.80;96.50;;;;;;5047205;28;20029;-45
2022/07/16 01:26:39;;;;;;;5.07;1.35;;;15.80;96.50;;;;;;5048026;28;20035;-45
2022/07/16 01:29:05;;;;;;;1.17;0.90;;;15.80;96.50;;;;;;5048169;28;20029;-44
2022/07/16 01:31:30;;;;;;;2.20;1.00;;;15.80;96.50;;;;;;5048089;28;20021;-44
2022/07/16 01:36:40;;;;;;;2.42;1.00;;;15.80;96.50;;;;;;5019038;28;20040;-44
2022/07/16 01:39:05;;;;;;;2.13;1.25;;;15.80;96.40;;;;;;5020282;28;20025;-45
2022/07/16 01:41:31;;;;;;;4.78;1.40;;;15.80;96.40;;;;;;5035034;28;20025;-46
2022/07/16 01:43:56;;;;;;;2.83;0.85;;;15.80;96.50;;;;;;5040040;28;20033;-49
2022/07/16 01:46:22;;;;;;;2.72;1.10;;;15.80;96.50;;;;;;5047610;28;20025;-44
2022/07/16 01:48:48;;;;;;;2.78;1.13;;;15.80;96.50;;;;;;5047093;28;20029;-45
2022/07/16 01:51:14;;;;;;;1.92;1.02;;;15.80;96.40;;;;;;5046853;28;20044;-44
2022/07/16 01:53:39;;;;;;;4.03;1.33;;;15.80;96.30;;;;;;5047746;28;20497;-44
2022/07/16 01:56:05;;;;;;;1.13;1.02;;;15.80;96.10;;;;;;5047388;28;20032;-45
2022/07/16 01:58:31;;;;;;;1.88;0.90;;;15.90;96.00;;;;;;5022308;28;20052;-44
2022/07/16 02:00:56;;;;;;;9.60;1.15;;;15.90;96.00;;;;;;5027523;28;20025;-44
2022/07/16 02:03:22;;;;;;;5.22;1.20;;;15.90;95.90;;;;;;5019426;28;20029;-44
2022/07/16 02:05:47;;;;;;;4.15;1.00;;;15.90;95.90;;;;;;5011880;28;20032;-45
2022/07/16 02:08:13;;;;;;;2.20;0.98;;;15.90;95.90;;;;;;5017322;28;20104;-44
2022/07/16 02:10:39;;;;;;;4.35;1.20;;;16.00;95.90;;;;;;5017158;28;20397;-44
2022/07/16 02:13:05;;;;;;;1.30;0.77;;;16.00;95.90;;;;;;5018574;28;20483;-44
2022/07/16 02:15:31;;;;;;;2.63;1.10;;;16.00;95.70;;;;;;5016628;28;20030;-45
2022/07/16 02:17:57;;;;;;;1.65;0.75;;;16.10;95.70;;;;;;5017498;28;20040;-44
2022/07/16 02:20:22;;;;;;;1.63;0.90;;;16.10;95.70;;;;;;5020381;28;20029;-47
2022/07/16 02:22:48;;;;;;;2.38;0.88;;;16.10;95.60;;;;;;5020006;28;20022;-45
2022/07/16 02:25:13;;;;;;;9.60;1.20;;;16.10;95.60;;;;;;5017915;28;20103;-44
2022/07/16 02:28:05;;;;;;;1.58;0.90;;;16.10;95.60;;;;;;5011489;28;20631;-45
2022/07/16 02:30:26;;;;;;;5.18;0.95;;;16.10;95.50;;;;;;5035303;28;20025;-45
2022/07/16 02:32:51;;;;;;;1.80;0.93;;;16.10;95.50;;;;;;5050659;28;20025;-44
2022/07/16 02:35:17;;;;;;;1.88;0.90;;;16.10;95.70;;;;;;5050651;28;20120;-45
2022/07/16 02:37:42;;;;;;;0.85;0.85;;;16.00;95.90;;;;;;5050751;28;20427;-45
2022/07/16 02:40:08;;;;;;;3.97;1.13;;;16.00;96.10;;;;;;5050863;28;20510;-45
2022/07/16 02:42:34;;;;;;;4.38;1.27;;;16.00;96.20;;;;;;5050996;28;20031;-45
2022/07/16 02:44:59;;;;;;;3.08;0.90;;;16.00;96.40;;;;;;5048986;28;20226;-44
2022/07/16 02:47:25;;;;;;;2.30;1.00;;;16.00;96.60;;;;;;5051034;28;20045;-45
2022/07/16 02:49:50;;;;;;;2.55;0.88;;;16.00;96.60;;;;;;5050782;28;20502;-45
2022/07/16 02:52:16;;;;;;;4.80;1.15;;;16.00;96.80;;;;;;5050772;28;20028;-45
2022/07/16 02:54:41;;;;;;;1.77;0.90;;;16.00;96.90;;;;;;5049884;28;20067;-45
2022/07/16 02:57:07;;;;;;;5.57;1.33;;;16.00;96.90;;;;;;5050691;28;20108;-45
2022/07/16 02:59:33;;;;;;;5.32;1.48;;;16.00;97.00;;;;;;5043677;28;20374;-44
2022/07/16 03:01:59;;;;;;;3.92;1.30;;;15.90;97.20;;;;;;5043050;28;20441;-44
2022/07/16 03:04:24;;;;;;;5.20;1.50;;;15.80;97.40;;;;;;5049721;28;20072;-45
2022/07/16 03:06:50;;;;;;;3.25;1.50;;;15.90;97.50;;;;;;5050310;28;20170;-45
2022/07/16 03:09:15;;;;;;;5.60;2.00;;;15.90;97.50;;;;;;5048906;28;20060;-46
2022/07/16 03:11:41;;;;;;;2.13;1.30;;;16.00;97.50;;;;;;5050434;28;20028;-44
2022/07/16 03:14:06;;;;;;;5.82;1.15;;;16.00;97.80;;;;;;5049290;28;20029;-46
2022/07/16 03:16:32;;;;;;;3.25;1.38;;;16.00;97.70;;;;;;5050292;28;20029;-46
2022/07/16 03:18:57;;;;;;;1.83;1.20;;;16.00;97.60;;;;;;5050079;28;20025;-46
2022/07/16 03:21:23;;;;;;;2.42;1.40;;;16.00;97.70;;;;;;5049105;28;20083;-46
2022/07/16 03:23:48;;;;;;;2.97;1.55;;;15.90;97.70;;;;;;5050045;28;20021;-45
2022/07/16 03:26:14;;;;;;;4.22;1.38;;;15.90;97.80;;;;;;5049637;28;20044;-46
2022/07/16 03:28:39;;;;;;;4.07;1.17;;;15.90;97.90;;;;;;5044899;28;20025;-46
2022/07/16 03:31:05;;;;;;;1.85;1.08;;;15.90;98.00;;;;;;5040793;28;20021;-46
2022/07/16 03:33:30;;;;;;;1.35;1.20;;;15.90;97.90;;;;;;5049854;28;20536;-45
2022/07/16 03:35:56;;;;;;;2.58;1.23;;;15.90;97.90;;;;;;5049213;28;20107;-45
2022/07/16 03:41:06;;;;;;;2.28;1.52;;;15.90;97.80;;;;;;5049870;28;20083;-46
2022/07/16 03:43:31;;;;;;;1.98;1.30;;;16.00;97.80;;;;;;5048245;28;20021;-46
2022/07/16 03:45:57;;;;;;;2.22;1.08;;;16.00;97.90;;;;;;5049116;28;20037;-46
2022/07/16 03:48:22;;;;;;;2.67;1.35;;;16.00;98.00;;;;;;5049900;28;20543;-47
2022/07/16 03:50:47;;;;;;;2.72;1.35;;;16.00;97.90;;;;;;5050049;28;20252;-45
2022/07/16 03:53:13;;;;;;;6.32;1.70;;;16.00;97.90;;;;;;5049623;28;20079;-46
2022/07/16 03:55:38;;;;;;;3.58;1.42;;;16.00;97.90;;;;;;5047110;28;20029;-47
2022/07/16 03:58:04;;;;;;;2.72;1.40;;;16.00;98.10;;;;;;5026602;28;20030;-47
2022/07/16 04:00:29;;;;;;;10.23;1.95;;;16.10;98.10;;;;;;5028673;28;20035;-46
2022/07/16 04:02:55;;;;;;;2.53;1.42;;;16.00;98.20;;;;;;5025255;28;20045;-46
2022/07/16 04:05:20;;;;;;;6.15;1.70;;;16.00;98.10;;;;;;5025940;28;20025;-46
2022/07/16 04:07:46;;;;;;;5.28;1.38;;;16.10;98.10;;;;;;5020785;28;20044;-48
2022/07/16 04:10:11;;;;;;;4.50;1.80;;;16.10;98.10;;;;;;5018463;28;20022;-46
2022/07/16 04:12:37;;;;;;;4.32;1.98;;;16.20;98.00;;;;;;5017328;28;20037;-46
2022/07/16 04:15:03;;;;;;;2.95;1.75;;;16.20;98.00;;;;;;5022290;28;20383;-46
2022/07/16 04:17:28;;;;;;;5.28;1.83;;;16.20;98.00;;;;;;5020455;28;20038;-48
2022/07/16 04:19:54;;;;;;;3.00;1.50;;;16.20;98.10;;;;;;5014768;28;20040;-46
2022/07/16 04:22:19;;;;;;;3.88;1.58;;;16.20;98.50;;;;;;5010353;28;20151;-47
2022/07/16 04:24:44;;;;;;;4.95;1.80;;;16.20;98.30;;;;;;5018237;28;20041;-46
2022/07/16 04:27:10;;;;;;;1.95;1.63;;;16.20;98.60;;;;;;5015575;28;20113;-47
2022/07/16 04:29:35;;;;;;;4.45;2.05;;;16.30;98.50;;;;;;5031986;28;20442;-47
2022/07/16 04:32:01;;;;;;;4.75;1.65;;;16.30;99.00;;;;;;5036057;28;20164;-46
2022/07/16 04:34:28;;;;;;;3.15;1.88;;;16.20;99.60;;;;;;5022720;28;20044;-46
2022/07/16 04:36:53;;;;;;;4.10;1.85;;;16.20;99.90;;;;;;5016808;28;20030;-46
2022/07/16 04:39:19;;;;;;;7.07;1.92;;;16.20;99.90;;;;;;5018367;28;20048;-46
2022/07/16 04:41:44;;;;;;;5.10;2.08;;;16.20;99.90;;;;;;5019318;28;20442;-48
2022/07/16 04:44:09;;;;;;;4.30;2.15;;;16.20;99.90;;;;;;5013627;28;20057;-49
2022/07/16 04:46:35;;;;;;;4.00;2.30;;;16.10;99.90;;;;;;5008901;28;20463;-47
2022/07/16 04:49:00;;;;;;;4.50;2.22;;;16.10;99.90;;;;;;5017356;28;20037;-50
2022/07/16 04:51:26;;;;;;;5.38;2.25;;;16.00;99.90;;;;;;5028841;28;20033;-46
2022/07/16 04:53:52;;;;;;;7.10;2.53;;;16.00;99.90;;;;;;5022982;28;20394;-46
2022/07/16 04:56:17;;;;;;;6.47;3.15;;;15.90;99.90;;;;;;5008522;28;20022;-47
2022/07/16 04:58:43;;;;;;;8.07;2.70;;;15.90;99.90;;;;;;5017181;28;20028;-45
2022/07/16 05:01:08;;;;;;;5.68;2.33;;;15.90;99.90;;;;;;5040060;28;20047;-46
2022/07/16 05:03:34;;;;;;;6.63;2.72;;;15.70;99.90;;;;;;5048573;28;20048;-47
2022/07/16 05:06:01;;;;;;;4.60;3.42;;;15.60;99.90;;;;;;5008317;28;20392;-46
2022/07/16 05:08:26;;;;;;;4.70;3.38;;;15.40;99.90;;;;;;5008662;28;20026;-46
2022/07/16 05:10:52;;;;;;;3.72;2.40;;;15.30;99.90;;;;;;5025458;28;20045;-47
2022/07/16 05:13:17;;;;;;;5.25;3.38;;;15.20;99.90;;;;;;5028317;28;20029;-46
2022/07/16 05:15:43;;;;;;;6.07;3.25;;;15.20;99.90;;;;;;5012800;28;20026;-46
2022/07/16 05:18:09;;;;;;;12.43;3.70;;;15.20;99.90;;;;;;5008615;28;20036;-46
2022/07/16 05:20:35;;;;;;;7.30;3.70;;;15.20;99.90;;;;;;5020364;28;20044;-45
2022/07/16 05:23:01;;;;;;;6.88;3.17;;;15.20;99.90;;;;;;5028250;28;20025;-46
2022/07/16 05:25:27;;;;;;;8.57;3.47;;;15.30;99.90;;;;;;5018374;28;20034;-49
2022/07/16 05:27:52;;;;;;;7.88;3.65;;;15.30;99.90;;;;;;5008475;28;20036;-48
2022/07/16 05:30:18;;;;;;;8.65;3.67;;;15.20;99.90;;;;;;5030742;28;20025;-48
2022/07/16 05:32:44;;;;;;;5.03;3.45;;;15.30;99.90;;;;;;5046759;28;20036;-46
2022/07/16 05:35:11;;;;;;;6.10;3.40;;;15.30;99.90;;;;;;5043268;28;20033;-47
2022/07/16 05:37:37;;;;;;;5.82;3.30;;;15.40;99.90;;;;;;5028217;28;20022;-45
2022/07/16 05:40:03;;;;;;;5.30;3.30;;;15.40;99.90;;;;;;5027552;28;20082;-46
2022/07/16 05:42:29;;;;;;;6.28;3.38;;;15.50;99.90;;;;;;5008569;28;20044;-45
2022/07/16 05:44:54;;;;;;;6.63;3.40;;;15.60;99.90;;;;;;5007432;28;20033;-46
2022/07/16 05:47:20;;;;;;;3.75;2.78;;;15.70;99.90;;;;;;5026374;28;20479;-46
2022/07/16 05:49:45;;;;;;;3.60;3.00;;;15.70;99.90;;;;;;5028054;28;20033;-48
2022/07/16 05:52:11;;;;;;;7.30;3.33;;;15.80;99.90;;;;;;5027746;28;20661;-46
2022/07/16 05:54:36;;;;;;;6.03;2.85;;;15.80;99.90;;;;;;5031875;28;20109;-47
2022/07/16 05:57:02;;;;;;;4.28;2.70;;;16.00;99.90;;;;;;5026754;28;20026;-47
2022/07/16 05:59:27;;;;;;;7.60;3.10;;;16.00;99.90;;;;;;5029102;28;20162;-47
2022/07/16 06:01:53;;;;;;;4.20;3.05;;;16.10;99.90;;;;;;5030470;28;20403;-47
2022/07/16 06:04:18;;;;;;;5.15;3.13;;;16.20;99.90;;;;;;5028294;28;20033;-47
2022/07/16 06:06:44;;;;;;;3.55;2.55;;;16.30;99.90;;;;;;5031206;28;20609;-47
2022/07/16 06:09:09;;;;;;;5.65;2.67;;;16.40;99.90;;;;;;5035442;28;20036;-46
2022/07/16 06:11:35;;;;;;;6.28;3.17;;;16.40;99.90;;;;;;5032961;28;20050;-49
2022/07/16 06:14:00;;;;;;;6.97;3.03;;;16.40;99.90;;;;;;5023614;28;20260;-46
2022/07/16 06:16:27;;;;;;;7.18;2.70;;;16.60;99.90;;;;;;5013469;28;20045;-50
2022/07/16 06:18:53;;;;;;;3.92;2.40;;;16.60;99.90;;;;;;5031229;28;20124;-47
2022/07/16 06:21:18;;;;;;;4.65;2.50;;;16.60;99.90;;;;;;5028080;28;20116;-47
2022/07/16 06:23:44;;;;;;;5.53;2.70;;;16.70;99.90;;;;;;5030204;28;20025;-47
2022/07/16 06:26:09;;;;;;;2.55;2.20;;;16.70;99.90;;;;;;5032361;28;20052;-48
2022/07/16 06:28:35;;;;;;;4.35;2.10;;;16.90;99.90;;;;;;5029853;28;20033;-46
2022/07/16 06:31:00;;;;;;;5.55;2.67;;;17.00;99.90;;;;;;5027378;28;20033;-46
2022/07/16 06:33:26;;;;;;;7.60;2.67;;;17.00;99.90;;;;;;5027803;28;20075;-45
2022/07/16 06:35:52;;;;;;;4.95;2.20;;;17.10;99.90;;;;;;5027860;28;20024;-46
2022/07/16 06:38:17;;;;;;;2.70;1.98;;;17.20;99.90;;;;;;5028228;28;20025;-47
2022/07/16 06:40:44;;;;;;;2.20;1.65;;;17.30;99.90;;;;;;5024993;28;20099;-45
2022/07/16 06:43:10;;;;;;;4.18;2.13;;;17.40;99.90;;;;;;5022319;28;20531;-44
2022/07/16 06:45:36;;;;;;;2.53;2.22;;;17.30;99.90;;;;;;5025887;28;20796;-46
2022/07/16 06:48:01;;;;;;;6.10;2.45;;;17.30;99.90;;;;;;5024071;28;20053;-45
2022/07/16 06:50:27;;;;;;;3.08;2.20;;;17.20;99.90;;;;;;5026729;28;20025;-45
2022/07/16 06:52:53;;;;;;;3.67;2.28;;;17.30;99.90;;;;;;5025818;28;20029;-45
2022/07/16 06:55:18;;;;;;;6.63;1.90;;;17.40;99.90;;;;;;5025193;28;20025;-45
2022/07/16 06:57:44;;;;;;;3.60;1.95;;;17.50;99.90;;;;;;5025631;28;20048;-45
2022/07/16 07:00:10;;;;;;;7.55;2.25;;;17.80;99.90;;;;;;5024771;28;20365;-47
2022/07/16 07:02:35;;;;;;;3.67;1.73;;;17.90;99.90;;;;;;5032335;28;20021;-47
2022/07/16 07:05:01;;;;;;;2.83;1.73;;;18.00;99.90;;;;;;5024736;28;20411;-45
2022/07/16 07:07:26;;;;;;;3.40;1.90;;;18.00;99.90;;;;;;5026977;28;20029;-45
2022/07/16 07:09:52;;;;;;;4.22;2.08;;;17.90;99.90;;;;;;5025883;28;20026;-45
2022/07/16 07:12:17;;;;;;;2.75;1.70;;;17.80;99.90;;;;;;5022985;28;20064;-45
2022/07/16 07:14:43;;;;;;;5.00;2.05;;;17.60;99.90;;;;;;5010889;28;20537;-45
2022/07/16 07:17:08;;;;;;;3.13;2.00;;;17.40;99.90;;;;;;5026090;28;20049;-46
2022/07/16 07:19:34;;;;;;;5.97;2.25;;;17.40;99.90;;;;;;5025183;28;20105;-45
2022/07/16 07:22:00;;;;;;;6.15;1.80;;;17.40;99.90;;;;;;5019132;28;20021;-45
2022/07/16 07:24:26;;;;;;;3.47;1.90;;;17.60;99.90;;;;;;5018653;28;20097;-45
2022/07/16 07:26:51;;;;;;;2.85;1.98;;;17.80;99.90;;;;;;5029826;28;20610;-45
2022/07/16 07:29:17;;;;;;;2.78;1.83;;;18.00;99.90;;;;;;5034685;28;20025;-45
2022/07/16 07:31:42;;;;;;;3.28;1.88;;;18.20;99.90;;;;;;5041598;28;20031;-45
2022/07/16 07:34:08;;;;;;;1.95;1.40;;;18.50;99.90;;;;;;5029270;28;20022;-45
2022/07/16 07:36:33;;;;;;;3.90;1.77;;;18.60;99.40;;;;;;5031616;28;20543;-45
2022/07/16 07:38:58;;;;;;;3.38;1.80;;;18.70;98.70;;;;;;5031095;28;20475;-45
2022/07/16 07:41:24;;;;;;;2.22;1.77;;;18.60;98.90;;;;;;5031344;28;20079;-45
2022/07/16 07:43:50;;;;;;;4.13;2.20;;;18.60;98.40;;;;;;5030486;28;20423;-45
2022/07/16 07:46:15;;;;;;;2.80;1.67;;;18.60;98.40;;;;;;5025454;28;20416;-45
2022/07/16 07:48:40;;;;;;;4.75;2.00;;;18.50;99.10;;;;;;5028095;28;20025;-45
2022/07/16 07:51:06;;;;;;;4.35;1.67;;;18.60;98.40;;;;;;5028127;28;20507;-45
2022/07/16 07:53:34;;;;;;;15.30;9.00;;;18.50;98.60;;;;;;5027885;28;20064;-44
2022/07/16 07:55:59;;;;;;;6.13;3.58;;;18.60;98.60;;;;;;5024674;28;20017;-45
2022/07/16 07:58:25;;;;;;;5.82;1.88;;;18.70;98.50;;;;;;5027654;28;20384;-44
2022/07/16 08:00:54;;;;;;;4.13;2.05;;;19.20;98.50;;;;;;5038410;28;20478;-44
2022/07/16 08:03:22;;;;;;;2.58;2.10;;;19.50;97.20;;;;;;5049107;28;20025;-45
2022/07/16 08:05:48;;;;;;;3.65;1.40;;;19.70;96.20;;;;;;5048381;28;20024;-45
2022/07/16 08:08:13;;;;;;;6.78;2.00;;;19.80;96.30;;;;;;5048704;28;20029;-44
2022/07/16 08:10:39;;;;;;;2.30;1.42;;;19.90;96.60;;;;;;5048900;28;20461;-45
2022/07/16 08:13:04;;;;;;;2.58;1.60;;;20.10;96.20;;;;;;5048805;28;20025;-45
2022/07/16 08:15:31;;;;;;;3.22;1.50;;;20.30;95.80;;;;;;5046416;28;20033;-48
2022/07/16 08:17:56;;;;;;;3.83;1.58;;;20.40;95.40;;;;;;5048088;28;20055;-46
2022/07/16 08:20:23;;;;;;;2.60;1.85;;;20.40;94.90;;;;;;5025207;28;20057;-47
2022/07/16 08:22:48;;;;;;;2.75;1.58;;;20.50;94.90;;;;;;5018723;28;20057;-46
2022/07/16 08:27:58;;;;;;;3.38;1.73;;;20.20;95.00;;;;;;5022011;28;20140;-45
2022/07/16 08:30:23;;;;;;;1.50;1.23;;;20.40;95.00;;;;;;5023450;28;20136;-47
2022/07/16 08:32:49;;;;;;;3.25;1.48;;;21.10;94.60;;;;;;5027207;28;20445;-48
2022/07/16 08:35:16;;;;;;;3.10;1.67;;;21.30;94.00;;;;;;5026748;28;20029;-46
2022/07/16 08:37:44;;;;;;;6.65;2.15;;;21.60;93.30;;;;;;5020537;28;20472;-44
2022/07/16 08:40:13;;;;;;;2.47;1.70;;;21.60;93.20;;;;;;5017723;28;20564;-46
2022/07/16 08:42:39;;;;;;;3.90;1.90;;;22.00;91.30;;;;;;5028532;28;20029;-49
2022/07/16 08:45:06;;;;;;;3.53;1.30;;;21.90;91.50;;;;;;5024426;28;20060;-47
2022/07/16 08:47:33;;;;;;;2.72;1.27;;;21.80;91.30;;;;;;5027829;28;20032;-47
2022/07/16 08:50:01;;;;;;;3.13;1.40;;;22.30;90.40;;;;;;5026855;28;20022;-48
2022/07/16 08:52:28;;;;;;;2.75;0.98;;;23.50;86.60;;;;;;5027179;28;20033;-46
2022/07/16 08:54:54;;;;;;;2.10;1.30;;;24.20;82.00;;;;;;5026372;28;20161;-46
2022/07/16 08:57:21;;;;;;;2.20;1.30;;;23.70;79.80;;;;;;5027101;28;20022;-46
2022/07/16 08:59:47;;;;;;;3.03;1.58;;;23.50;81.60;;;;;;5034857;28;20033;-47
2022/07/16 09:02:13;;;;;;;4.43;1.50;;;23.20;81.90;;;;;;5040147;28;20037;-46
2022/07/16 09:04:40;;;;;;;2.60;1.38;;;23.90;80.30;;;;;;5047826;28;20501;-45
2022/07/16 09:07:05;;;;;;;2.38;1.30;;;23.50;80.50;;;;;;5048343;28;20250;-48
2022/07/16 09:09:31;;;;;;;2.30;1.15;;;23.90;81.50;;;;;;5048465;28;20024;-45
2022/07/16 09:11:57;;;;;;;2.90;1.10;;;24.80;77.10;;;;;;5048313;28;20032;-46
2022/07/16 09:14:22;;;;;;;4.07;1.30;;;25.50;76.20;;;;;;5047543;28;20033;-46
2022/07/16 09:16:51;;;;;;;5.07;1.15;;;25.40;74.20;;;;;;5048479;28;20060;-46
2022/07/16 09:19:26;;;;;;;2.53;1.10;;;25.30;75.60;;;;;;5048181;28;20255;-46
2022/07/16 09:22:09;;;;;;;4.38;1.20;;;24.40;76.10;;;;;;5048316;28;20050;-46
2022/07/16 09:24:43;;;;;;;5.55;1.25;;;23.10;78.50;;;;;;5047580;28;20049;-49
2022/07/16 09:27:11;;;;;;;3.28;1.42;;;22.20;81.50;;;;;;5048150;28;20083;-48
2022/07/16 09:29:45;;;;;;;3.85;1.40;;;21.40;83.50;;;;;;5045673;28;20429;-46
2022/07/16 09:32:11;;;;;;;4.68;1.77;;;20.90;85.20;;;;;;5046415;28;20437;-46
2022/07/16 09:34:37;;;;;;;5.57;1.70;;;20.30;87.40;;;;;;5030742;28;20025;-46
2022/07/16 09:37:05;;;;;;;4.05;1.42;;;19.90;90.00;;;;;;5031763;28;20021;-46
2022/07/16 09:39:32;;;;;;;4.88;1.55;;;20.10;90.10;;;;;;5032090;28;20124;-45
2022/07/16 09:41:59;;;;;;;5.07;1.30;;;20.50;88.80;;;;;;5032518;28;20239;-45
2022/07/16 09:44:28;;;;;;;4.25;1.30;;;22.20;85.30;;;;;;5031372;28;20040;-48
2022/07/16 09:47:01;;;;;;;6.50;1.42;;;23.80;80.30;;;;;;5032275;28;20467;-47
2022/07/16 09:49:29;;;;;;;4.78;1.27;;;23.80;77.50;;;;;;5026514;28;20097;-46
2022/07/16 09:51:55;;;;;;;3.63;1.30;;;25.70;76.10;;;;;;5032329;28;20101;-47
2022/07/16 09:54:32;;;;;;;2.83;1.30;;;26.70;70.70;;;;;;5021462;28;20256;-45
2022/07/16 09:57:15;;;;;;;2.45;1.05;;;27.90;68.00;;;;;;5012293;28;20415;-45
2022/07/16 09:59:42;;;;;;;1.17;0.90;;;28.90;64.30;;;;;;5035215;28;20033;-45
2022/07/16 10:02:07;;;;;;;5.20;1.42;;;30.30;60.50;;;;;;5041146;28;20430;-46
2022/07/16 10:04:33;;;;;;;3.70;1.00;;;29.10;57.60;;;;;;5021895;28;20113;-44
2022/07/16 10:06:59;;;;;;;2.95;1.13;;;29.00;57.40;;;;;;5025945;28;20034;-46
2022/07/16 10:09:25;;;;;;;2.38;1.10;;;28.20;58.90;;;;;;5019424;28;20102;-45
2022/07/16 10:11:53;;;;;;;4.25;1.35;;;28.70;61.90;;;;;;5013171;28;20607;-48
2022/07/16 10:14:20;;;;;;;4.95;1.58;;;29.50;59.30;;;;;;5010967;28;20116;-44
2022/07/16 10:16:46;;;;;;;2.47;1.05;;;28.70;58.40;;;;;;5022393;28;20029;-45
2022/07/16 10:19:13;;;;;;;2.45;1.05;;;29.40;58.90;;;;;;5029204;28;20026;-46
2022/07/16 10:21:40;;;;;;;7.25;1.35;;;29.70;56.80;;;;;;5031412;28;20132;-46
2022/07/16 10:24:11;;;;;;;2.15;1.30;;;28.90;54.90;;;;;;5030602;28;20068;-46
2022/07/16 10:26:37;;;;;;;4.47;1.45;;;28.50;55.60;;;;;;5031485;28;20025;-46
2022/07/16 10:29:04;;;;;;;3.35;1.20;;;28.90;54.80;;;;;;5034528;28;20665;-46
2022/07/16 10:31:41;;;;;;;3.85;1.00;;;29.30;53.10;;;;;;5042332;28;20229;-47
2022/07/16 10:34:13;;;;;;;4.75;1.10;;;30.00;50.40;;;;;;5050754;28;20283;-46
2022/07/16 10:36:52;;;;;;;2.80;1.27;;;29.90;50.40;;;;;;5051191;28;20055;-48
2022/07/16 10:39:19;;;;;;;4.55;1.13;;;30.20;50.20;;;;;;5049282;28;20029;-48
2022/07/16 10:41:57;;;;;;;4.03;1.33;;;31.00;49.70;;;;;;5049933;28;20028;-46
2022/07/16 10:44:25;;;;;;;4.43;1.45;;;31.00;50.10;;;;;;5041385;28;20028;-47
2022/07/16 10:46:55;;;;;;;2.05;1.13;;;30.40;48.90;;;;;;5030149;28;20103;-46
2022/07/16 10:49:21;;;;;;;2.72;1.00;;;28.60;50.70;;;;;;5031077;28;20045;-46
2022/07/16 10:52:03;;;;;;;4.53;0.90;;;27.50;53.20;;;;;;5030594;28;20025;-46
2022/07/16 10:54:35;;;;;;;3.03;1.15;;;26.20;54.80;;;;;;5030099;28;20026;-46
2022/07/16 10:57:11;;;;;;;6.90;1.63;;;25.80;57.30;;;;;;5030702;28;20025;-46
2022/07/16 10:59:39;;;;;;;3.92;1.30;;;26.90;56.30;;;;;;5028075;28;20033;-46
2022/07/16 11:02:08;;;;;;;7.53;1.52;;;28.00;53.50;;;;;;5030941;28;20021;-47
2022/07/16 11:04:39;;;;;;;4.47;1.45;;;29.30;51.60;;;;;;5029971;28;20033;-46
2022/07/16 11:07:13;;;;;;;3.30;0.98;;;30.00;50.20;;;;;;5042887;28;20052;-47
2022/07/16 11:09:42;;;;;;;4.63;1.30;;;29.20;50.40;;;;;;5049734;28;20075;-47
2022/07/16 11:12:12;;;;;;;3.17;1.50;;;30.20;49.90;;;;;;5050779;28;20025;-46
2022/07/16 11:14:39;;;;;;;3.75;1.13;;;29.90;48.70;;;;;;5049731;28;20041;-49
2022/07/16 11:17:05;;;;;;;4.30;1.27;;;29.10;48.20;;;;;;5050517;28;20025;-47
2022/07/16 11:19:35;;;;;;;3.95;1.10;;;29.90;46.10;;;;;;5050270;28;20470;-47
2022/07/16 11:22:01;;;;;;;4.53;1.30;;;30.60;43.50;;;;;;5050765;28;20055;-46
2022/07/16 11:24:29;;;;;;;4.03;1.10;;;30.70;42.50;;;;;;5049704;28;20029;-46
2022/07/16 11:26:56;;;;;;;2.83;1.48;;;30.50;42.40;;;;;;5050467;28;20021;-47
2022/07/16 11:29:24;;;;;;;3.72;1.25;;;31.00;40.70;;;;;;5049786;28;20417;-47
2022/07/16 11:31:51;;;;;;;2.58;0.95;;;30.90;39.90;;;;;;5049086;28;20024;-47
2022/07/16 11:34:22;;;;;;;4.32;0.90;;;31.00;40.70;;;;;;5046597;28;20098;-49
2022/07/16 11:36:51;;;;;;;5.28;1.30;;;31.90;39.80;;;;;;5040253;28;20036;-48
2022/07/16 11:39:27;;;;;;;1.77;1.10;;;31.30;39.40;;;;;;5049933;28;20040;-48
2022/07/16 11:41:56;;;;;;;5.05;0.95;;;30.50;42.40;;;;;;5049788;28;20028;-48
2022/07/16 11:44:31;;;;;;;6.90;1.33;;;28.90;44.70;;;;;;5049021;28;20090;-46
2022/07/16 11:46:58;;;;;;;4.30;1.35;;;28.30;45.70;;;;;;5049853;28;20397;-49
2022/07/16 11:49:40;;;;;;;1.25;0.90;;;28.20;47.00;;;;;;5048575;28;20021;-46
2022/07/16 11:52:26;;;;;;;4.72;1.38;;;28.40;46.60;;;;;;5047500;28;20021;-49
2022/07/16 11:54:56;;;;;;;4.72;1.50;;;28.70;46.80;;;;;;5048866;28;20510;-46
2022/07/16 11:57:22;;;;;;;4.88;1.42;;;28.80;47.20;;;;;;5049781;28;20707;-48
2022/07/16 11:59:51;;;;;;;5.30;1.20;;;27.40;48.40;;;;;;5049561;28;20108;-46
2022/07/16 12:02:19;;;;;;;3.40;1.23;;;27.60;49.10;;;;;;5049637;28;20037;-48
2022/07/16 12:04:48;;;;;;;8.73;1.90;;;28.00;49.30;;;;;;5045824;28;20536;-49
2022/07/16 12:07:29;;;;;;;4.95;1.25;;;28.10;49.10;;;;;;5041005;28;20103;-46
2022/07/16 12:09:59;;;;;;;5.15;1.08;;;27.80;47.80;;;;;;5048115;28;20363;-46
2022/07/16 12:12:36;;;;;;;4.60;1.25;;;27.70;47.90;;;;;;5022908;28;20643;-50
2022/07/16 12:15:12;;;;;;;2.28;1.20;;;26.80;49.00;;;;;;5022168;28;20026;-47
2022/07/16 12:17:40;;;;;;;2.72;1.42;;;26.20;48.40;;;;;;5022971;28;20040;-46
2022/07/16 12:20:25;;;;;;;2.38;1.38;;;25.90;50.00;;;;;;5022579;28;20026;-46
2022/07/16 12:22:53;;;;;;;4.35;1.05;;;26.30;50.60;;;;;;5022507;28;20116;-46
2022/07/16 12:25:27;;;;;;;9.43;1.80;;;26.90;50.00;;;;;;5022070;28;20490;-48
2022/07/16 12:28:00;;;;;;;10.60;1.70;;;27.20;50.20;;;;;;5022676;28;20025;-47
2022/07/16 12:30:37;;;;;;;5.22;1.42;;;26.70;49.10;;;;;;5022584;28;20029;-49
2022/07/16 12:33:06;;;;;;;3.30;1.38;;;27.10;49.20;;;;;;5022399;28;20032;-47
2022/07/16 12:35:43;;;;;;;4.57;1.70;;;27.10;47.30;;;;;;5006535;28;20026;-48
2022/07/16 12:38:28;;;;;;;5.25;1.02;;;27.00;46.20;;;;;;5001276;28;20026;-47
2022/07/16 12:40:54;;;;;;;4.50;1.10;;;26.90;47.50;;;;;;5002105;28;20031;-46
2022/07/16 12:43:19;;;;;;;6.15;1.30;;;27.00;48.90;;;;;;5002134;28;20164;-46
2022/07/16 12:45:45;;;;;;;2.47;1.15;;;26.70;47.50;;;;;;5016096;28;20317;-46
2022/07/16 12:48:10;;;;;;;5.10;1.20;;;26.90;47.30;;;;;;5021586;28;20026;-46
2022/07/16 12:50:36;;;;;;;8.52;1.45;;;26.90;47.30;;;;;;5019890;28;20030;-47
2022/07/16 12:53:01;;;;;;;10.68;1.73;;;26.60;47.30;;;;;;5021888;28;20026;-50
2022/07/16 12:58:49;;;;;;;6.60;1.35;;;26.80;48.10;;;;;;5028298;28;20108;-47
2022/07/16 13:01:17;;;;;;;5.75;1.45;;;26.80;47.10;;;;;;5018072;28;20040;-46